Capitol Logistics 570




YSSY
Kingsford Smith International Airport
Sydney, AU
WSSS
Changi International Airport
Singapore, SG

Route Details

Aircraft Information
Group: Trans-Pacific Ops
Types: B744,B763,MD11
Route Data
Demand: V
Distance: 3403nm
Duration: 8h 25m
Recm'd Route: DEENA7 KADOM A576 PKS G222 AYE T29 CIN A576 ATMAP M635 SURGA SURG1A
Origin Wx: YSSY 272130Z 31008KT 9999 FEW020 SCT080 BKN110 14/12 Q1012
Dest. Wx: WSSS 272130Z 32002KT 9999 FEW016 FEW018CB BKN280 27/25 Q1007 NOSIG
Notes:

Financial History
Total Freight: 128,386lbs
Average Load: 128,386lbs/flt
Fuel Used: 141,031lbs
Avg. Fuel Used: 141,031lbs/flt
Fuel Expense: $112,825
Avg. Fuel Expense: $112,825
Avg. Fuel Cost: $0.80/lbs
Total Gross Income: $537,937
Pilot Pay: $229
Total Expenses: $58,149
Total Revenue: $366,963
Average Revenue: $537,937.00